Time;durP1;ratioP1;P1;durP2;ratioP2;P2;SDS_P1;SDS_P2;PMS_P1;PMS_P2;Temp;Humidity;BMP_temperature;BMP_pressure;BME280_temperature;BME280_humidity;BME280_pressure;Samples;Min_cycle;Max_cycle;Signal;HPM_P1;HPM_P2
2022/09/25 00:01:25;;;;;;;12.23;8.50;;;;;;;-141.97;63.10;47578.66;5043321;28;20173;-86
2022/09/25 00:03:50;;;;;;;13.70;8.53;;;;;;;-141.97;62.32;47607.50;5021226;28;20190;-87
2022/09/25 00:06:24;;;;;;;12.70;7.90;;;;;;;-141.97;62.52;47499.84;5041061;28;20173;-86
2022/09/25 00:08:51;;;;;;;12.03;8.47;;;;;;;-141.97;64.18;47480.63;5044987;28;20193;-85
2022/09/25 00:11:20;;;;;;;13.77;8.53;;;;;;;-141.97;64.66;47488.31;5047311;28;20165;-86
2022/09/25 00:13:46;;;;;;;13.47;8.70;;;;;;;-141.97;64.54;47519.06;5027191;28;20234;-86
2022/09/25 00:16:19;;;;;;;12.93;8.77;;;;;;;-141.97;65.02;47517.16;5041556;28;20222;-85
2022/09/25 00:21:30;;;;;;;13.77;8.93;;;;;;;-141.97;nan;47465.25;5033925;28;20228;-86
2022/09/25 00:23:59;;;;;;;13.70;8.90;;;;;;;-141.97;64.31;47492.16;5033934;28;20555;-87
2022/09/25 00:26:27;;;;;;;14.40;8.87;;;;;;;-141.97;63.77;47542.16;5017117;28;20205;-85
2022/09/25 00:28:53;;;;;;;16.27;9.20;;;;;;;-141.97;63.59;47532.53;5033879;28;20170;-85
2022/09/25 00:31:23;;;;;;;14.33;9.40;;;;;;;-141.97;63.82;47507.53;5015829;28;20170;-85
2022/09/25 00:33:52;;;;;;;15.80;9.00;;;;;;;-141.97;63.81;47507.53;5033754;28;20155;-86
2022/09/25 00:36:18;;;;;;;19.27;9.57;;;;;;;-141.97;64.21;47496.00;5034577;28;20162;-86
2022/09/25 00:38:45;;;;;;;14.27;9.70;;;;;;;-141.97;64.64;47496.00;5033702;28;20235;-86
2022/09/25 00:41:10;;;;;;;14.80;9.70;;;;;;;-141.97;64.80;47524.84;5033905;28;20239;-84
2022/09/25 00:43:39;;;;;;;15.27;9.57;;;;;;;-141.97;64.51;47486.41;5033882;28;20218;-86
2022/09/25 00:46:21;;;;;;;15.73;9.43;;;;;;;-141.97;64.95;47496.00;5033710;28;20166;-86
2022/09/25 00:49:08;;;;;;;15.40;10.13;;;;;;;-141.97;64.80;47538.28;5032909;28;20572;-86
2022/09/25 00:51:51;;;;;;;17.33;10.20;;;;;;;-141.97;64.99;47476.78;5017514;28;20174;-84
2022/09/25 00:54:28;;;;;;;19.00;10.40;;;;;;;-141.97;65.18;47509.47;5033440;28;20237;-86
2022/09/25 00:56:57;;;;;;;17.63;10.60;;;;;;;-141.97;65.04;47524.84;5033053;28;20644;-86
2022/09/25 00:59:28;;;;;;;15.80;10.40;;;;;;;-141.97;65.14;47496.00;5032724;28;20644;-86
2022/09/25 01:01:55;;;;;;;18.70;10.77;;;;;;;-141.97;65.43;47505.63;5033091;28;20289;-86
2022/09/25 01:04:22;;;;;;;17.10;10.17;;;;;;;-141.97;64.79;47530.59;5034046;28;20253;-86
2022/09/25 01:06:49;;;;;;;17.93;10.67;;;;;;;-141.97;65.06;47517.16;5049397;28;20216;-85
2022/09/25 01:09:16;;;;;;;21.00;11.60;;;;;;;-141.97;64.62;47472.94;5033174;28;20158;-85
2022/09/25 01:11:41;;;;;;;25.87;16.50;;;;;;;-141.97;64.43;47422.97;5033190;28;20173;-86
2022/09/25 01:14:09;;;;;;;32.50;18.53;;;;;;;-141.97;64.73;47509.47;5032983;28;20166;-86
2022/09/25 01:16:37;;;;;;;26.93;15.37;;;;;;;-141.97;64.78;47534.44;5032191;28;20232;-86
2022/09/25 01:19:47;;;;;;;33.30;17.20;;;;;;;-141.97;64.26;47444.13;5032670;28;20169;-85
2022/09/25 01:22:26;;;;;;;34.27;16.03;;;;;;;-141.97;64.49;47480.63;4991548;28;20211;-86
2022/09/25 01:25:16;;;;;;;28.33;15.20;;;;;;;-141.97;65.54;47511.38;4991469;28;20167;-86
2022/09/25 01:27:56;;;;;;;21.13;12.40;;;;;;;-141.97;65.38;47465.25;4991841;28;20171;-85
2022/09/25 01:30:22;;;;;;;21.50;12.63;;;;;;;-141.97;66.15;47461.41;4991244;28;20206;-86
2022/09/25 01:33:17;;;;;;;20.13;11.53;;;;;;;-141.97;66.37;47492.16;4993332;28;20186;-85
2022/09/25 01:35:52;;;;;;;18.77;12.13;;;;;;;-141.97;67.30;47511.38;4991423;28;20179;-86
2022/09/25 01:38:20;;;;;;;19.20;11.03;;;;;;;-141.97;66.95;47494.09;4991536;28;20167;-84
2022/09/25 01:41:10;;;;;;;18.00;11.10;;;;;;;-141.97;68.02;47515.22;4990995;28;20683;-84
2022/09/25 01:43:41;;;;;;;17.70;10.80;;;;;;;-141.97;69.20;47484.47;4992256;28;20987;-86
2022/09/25 01:46:20;;;;;;;17.67;10.87;;;;;;;-141.97;69.43;47482.56;4991487;28;20418;-86
2022/09/25 01:48:52;;;;;;;16.97;10.27;;;;;;;-141.97;69.25;47515.22;4991070;28;20218;-85
2022/09/25 01:51:23;;;;;;;17.20;10.30;;;;;;;-141.97;69.02;47490.25;4974820;28;20182;-85
2022/09/25 01:53:54;;;;;;;19.07;10.70;;;;;;;-141.97;68.82;47513.31;4993597;28;20238;-86
2022/09/25 01:56:33;;;;;;;18.43;10.97;;;;;;;-141.97;68.65;47497.94;4991252;28;20250;-86
2022/09/25 01:59:15;;;;;;;21.03;10.73;;;;;;;-141.97;67.53;47480.63;5016456;28;20197;-86
2022/09/25 02:01:43;;;;;;;17.87;10.67;;;;;;;-141.97;67.62;47497.94;5032859;28;20162;-86
2022/09/25 02:04:15;;;;;;;16.63;9.90;;;;;;;-141.97;67.63;47478.72;5055500;28;20198;-83
2022/09/25 02:06:45;;;;;;;18.50;10.77;;;;;;;-141.97;67.28;47530.59;5057067;28;20166;-86
2022/09/25 02:09:43;;;;;;;16.50;10.50;;;;;;;-141.97;67.38;47499.84;5042262;28;20209;-87
2022/09/25 02:12:13;;;;;;;16.87;10.27;;;;;;;-141.97;66.95;47521.00;4995090;28;20206;-87
2022/09/25 02:15:04;;;;;;;17.57;10.60;;;;;;;-141.97;67.46;47490.25;4995122;28;20174;-87
2022/09/25 02:20:31;;;;;;;16.47;10.47;;;;;;;-141.97;67.59;47511.38;4994467;28;20183;-85
2022/09/25 02:23:06;;;;;;;15.07;9.97;;;;;;;-141.97;67.25;47465.25;4994095;28;20211;-85
2022/09/25 02:25:42;;;;;;;20.20;10.47;;;;;;;-141.97;68.06;47609.41;4993958;28;20203;-86
2022/09/25 02:28:07;;;;;;;23.20;12.77;;;;;;;-141.97;67.44;47546.00;4993911;28;20171;-86
2022/09/25 02:30:33;;;;;;;19.20;11.57;;;;;;;-141.97;67.65;47522.91;4977484;28;20195;-86
2022/09/25 02:32:58;;;;;;;15.77;10.07;;;;;;;-141.97;68.43;47511.38;4993952;28;20156;-85
2022/09/25 02:35:24;;;;;;;16.53;10.57;;;;;;;-141.97;68.74;47496.00;4993153;28;20198;-85
2022/09/25 02:37:51;;;;;;;17.60;10.60;;;;;;;-141.97;68.90;47536.38;4994219;28;20189;-85
2022/09/25 02:40:18;;;;;;;16.23;10.43;;;;;;;-141.97;69.25;47492.16;4994147;28;20164;-86
2022/09/25 02:42:43;;;;;;;16.30;10.37;;;;;;;-141.97;68.79;47515.22;4993346;28;20215;-86
2022/09/25 02:45:42;;;;;;;17.10;9.97;;;;;;;-141.97;68.73;47497.94;4993320;28;20485;-86
2022/09/25 02:48:31;;;;;;;15.97;10.27;;;;;;;-141.97;69.09;47499.84;4981694;28;20187;-86
2022/09/25 02:51:19;;;;;;;16.07;9.67;;;;;;;-141.97;68.01;47519.06;5034835;28;20170;-86
2022/09/25 02:54:03;;;;;;;15.27;9.10;;;;;;;-141.97;67.91;47476.78;5017145;28;20170;-85
2022/09/25 02:56:35;;;;;;;13.60;9.13;;;;;;;-141.97;67.29;47515.22;5034976;28;20202;-86
2022/09/25 02:59:07;;;;;;;15.23;9.90;;;;;;;-141.97;67.67;47474.88;5034755;28;20158;-86
2022/09/25 03:01:37;;;;;;;16.47;10.30;;;;;;;-141.97;68.13;47465.25;5034778;28;20241;-85
2022/09/25 03:04:04;;;;;;;27.63;17.27;;;;;;;-141.97;67.53;47484.47;5036555;28;20166;-87
2022/09/25 03:06:29;;;;;;;27.53;17.60;;;;;;;-141.97;67.38;47501.78;5034644;28;20166;-86
2022/09/25 03:08:58;;;;;;;32.13;20.13;;;;;;;-141.97;67.56;47532.53;5033930;28;20253;-85
2022/09/25 03:11:27;;;;;;;21.13;11.37;;;;;;;-141.97;67.78;47494.09;5034693;28;20166;-87
2022/09/25 03:13:58;;;;;;;14.67;10.10;;;;;;;-141.97;68.58;47501.78;5034462;28;20154;-86
2022/09/25 03:16:46;;;;;;;19.97;10.00;;;;;;;-141.97;68.93;47471.03;5035101;28;20468;-87
2022/09/25 03:19:12;;;;;;;17.70;10.03;;;;;;;-141.97;68.76;47515.22;5016807;28;20185;-86
2022/09/25 03:21:38;;;;;;;15.37;10.30;;;;;;;-141.97;68.84;47549.84;5035126;28;20443;-85
2022/09/25 03:24:04;;;;;;;13.80;9.40;;;;;;;-141.97;68.55;47509.47;5034665;28;20423;-86
2022/09/25 03:26:29;;;;;;;17.97;10.43;;;;;;;-141.97;68.32;47474.88;5035579;28;20196;-86
2022/09/25 03:28:55;;;;;;;15.83;10.10;;;;;;;-141.97;68.38;47513.31;5035680;28;20264;-86
2022/09/25 03:31:21;;;;;;;17.20;10.23;;;;;;;-141.97;68.34;47534.44;5034474;28;20177;-86
2022/09/25 03:33:47;;;;;;;14.97;9.63;;;;;;;-141.97;68.84;47497.94;5034729;28;20170;-85
2022/09/25 03:36:22;;;;;;;19.73;11.00;;;;;;;-141.97;69.42;47484.47;5035732;28;20167;-86
2022/09/25 03:38:50;;;;;;;17.70;10.63;;;;;;;-141.97;68.80;47503.69;5035458;28;20626;-86
2022/09/25 03:41:20;;;;;;;16.30;10.27;;;;;;;-141.97;68.85;47499.84;5034145;28;20404;-85
2022/09/25 03:43:53;;;;;;;18.07;10.17;;;;;;;-141.97;68.84;47474.88;5033405;28;20181;-86
2022/09/25 03:46:22;;;;;;;16.93;10.63;;;;;;;-141.97;68.72;47474.88;5033506;28;20245;-86
2022/09/25 03:48:48;;;;;;;16.50;10.40;;;;;;;-141.97;69.32;47524.84;5033873;28;20181;-86
2022/09/25 03:51:14;;;;;;;17.23;10.33;;;;;;;-141.97;69.43;47492.16;5034682;28;20170;-86
2022/09/25 03:53:39;;;;;;;19.13;11.13;;;;;;;-141.97;69.28;47538.28;5035547;28;20447;-86
2022/09/25 03:56:08;;;;;;;16.43;10.50;;;;;;;-141.97;70.18;47532.53;5038348;28;20254;-85
2022/09/25 03:58:34;;;;;;;17.20;10.50;;;;;;;-141.97;71.77;47490.25;5035005;28;20170;-86
2022/09/25 04:01:00;;;;;;;19.43;10.77;;;;;;;-141.97;72.51;47469.09;5016206;28;20421;-84
2022/09/25 04:03:28;;;;;;;18.67;10.73;;;;;;;-141.97;73.36;47534.44;5033721;28;20502;-86
2022/09/25 04:05:58;;;;;;;17.90;11.07;;;;;;;-141.97;74.26;47484.47;5033192;28;20397;-85
2022/09/25 04:08:25;;;;;;;19.20;11.80;;;;;;;-141.97;73.79;47534.44;5033207;28;20407;-86
2022/09/25 04:10:55;;;;;;;19.83;12.00;;;;;;;-141.97;74.11;47480.63;5032656;28;20844;-85
2022/09/25 04:13:23;;;;;;;19.77;11.73;;;;;;;-141.97;73.54;47526.75;5032519;28;20404;-86
2022/09/25 04:15:50;;;;;;;23.07;12.37;;;;;;;-141.97;73.42;47517.16;5032775;28;20412;-86
2022/09/25 04:18:15;;;;;;;23.33;12.63;;;;;;;-141.97;72.30;47501.78;5033320;28;20479;-85
2022/09/25 04:20:41;;;;;;;23.00;12.27;;;;;;;-141.97;72.24;47474.88;5015321;28;20504;-85
2022/09/25 04:23:06;;;;;;;24.13;12.53;;;;;;;-141.97;72.48;47488.31;5032774;28;20681;-85
2022/09/25 04:25:32;;;;;;;24.47;12.30;;;;;;;-141.97;72.19;47519.06;5033395;28;20194;-84
2022/09/25 04:27:57;;;;;;;27.47;14.57;;;;;;;-141.97;71.13;47513.31;5041956;28;20174;-85
2022/09/25 04:30:25;;;;;;;28.43;20.87;;;;;;;-141.97;70.78;47499.84;5057973;28;20154;-84
2022/09/25 04:35:35;;;;;;;65.67;43.87;;;;;;;-141.97;70.71;47496.00;5033816;28;20407;-85
2022/09/25 04:38:01;;;;;;;80.50;53.93;;;;;;;-141.97;70.78;47509.47;5033740;28;20804;-85
2022/09/25 04:40:28;;;;;;;85.27;52.50;;;;;;;-141.97;70.72;47446.03;5033497;28;20173;-86
2022/09/25 04:43:02;;;;;;;75.40;42.77;;;;;;;-141.97;70.45;47526.75;5032885;28;20229;-85
2022/09/25 04:45:29;;;;;;;51.23;33.03;;;;;;;-141.97;69.88;47542.16;5033379;28;20854;-86
2022/09/25 04:47:57;;;;;;;43.67;25.63;;;;;;;-141.97;70.21;47505.63;5033546;28;20793;-85
2022/09/25 04:50:23;;;;;;;38.37;24.20;;;;;;;-141.97;70.16;47530.59;5016199;28;20432;-85
2022/09/25 04:52:50;;;;;;;38.87;24.33;;;;;;;-141.97;69.83;47455.66;5033071;28;20405;-85
2022/09/25 04:55:21;;;;;;;37.47;22.63;;;;;;;-141.97;69.98;47499.84;5033049;28;20241;-86
2022/09/25 04:57:53;;;;;;;36.10;20.60;;;;;;;-141.97;69.52;47513.31;5033272;28;20409;-86
2022/09/25 05:00:19;;;;;;;41.53;21.93;;;;;;;-141.97;69.31;47530.59;5033793;28;20404;-86
2022/09/25 05:02:45;;;;;;;42.73;22.83;;;;;;;-141.97;69.34;47526.75;5032686;28;20448;-85
2022/09/25 05:05:11;;;;;;;32.70;17.60;;;;;;;-141.97;69.37;47494.09;5032577;28;20665;-85
2022/09/25 05:07:38;;;;;;;33.67;20.00;;;;;;;-141.97;69.05;47519.06;5032638;28;20174;-84
2022/09/25 05:10:04;;;;;;;24.57;14.60;;;;;;;-141.97;69.34;47505.63;5033032;28;20186;-86
2022/09/25 05:12:30;;;;;;;19.40;11.37;;;;;;;-141.97;69.31;47547.91;5033621;28;20837;-85
2022/09/25 05:14:56;;;;;;;20.43;10.47;;;;;;;-141.97;69.63;47515.22;5033068;28;20413;-86
2022/09/25 05:17:21;;;;;;;19.47;10.87;;;;;;;-141.97;69.28;47505.63;5034623;28;20995;-87
2022/09/25 05:19:47;;;;;;;18.67;10.87;;;;;;;-141.97;68.84;47484.47;5037674;28;20173;-86
2022/09/25 05:22:12;;;;;;;17.43;10.23;;;;;;;-141.97;69.40;47496.00;5023501;28;20190;-84
2022/09/25 05:24:38;;;;;;;15.60;9.67;;;;;;;-141.97;69.74;47549.84;5041599;28;20166;-84
2022/09/25 05:27:03;;;;;;;16.30;9.77;;;;;;;-141.97;69.76;47497.94;5035825;28;20184;-86
2022/09/25 05:29:29;;;;;;;14.47;8.97;;;;;;;-141.97;70.33;47515.22;5033726;28;20169;-85
2022/09/25 05:31:55;;;;;;;14.27;9.27;;;;;;;-141.97;72.12;47484.47;5015053;28;20170;-85
2022/09/25 05:34:20;;;;;;;15.70;9.47;;;;;;;-141.97;71.97;47522.91;5034124;28;20605;-85
2022/09/25 05:36:46;;;;;;;15.07;9.80;;;;;;;-141.97;72.12;47549.84;5035490;28;20893;-86
2022/09/25 05:39:11;;;;;;;16.30;10.77;;;;;;;-141.97;70.66;47513.31;5033237;28;20181;-84
2022/09/25 05:41:37;;;;;;;22.87;11.07;;;;;;;-141.97;70.45;47503.69;5038252;28;20166;-87
2022/09/25 05:44:05;;;;;;;15.10;9.43;;;;;;;-141.97;71.02;47342.25;5051944;28;20186;-85
2022/09/25 05:46:32;;;;;;;14.37;9.67;;;;;;;-141.97;71.84;47638.25;5041261;28;20213;-86
2022/09/25 05:48:59;;;;;;;21.60;10.50;;;;;;;-141.97;71.07;47530.59;5041082;28;20503;-85
2022/09/25 05:51:25;;;;;;;15.20;9.90;;;;;;;-141.97;71.00;47532.53;5055300;28;20686;-86
2022/09/25 05:53:52;;;;;;;13.57;8.90;;;;;;;-141.97;69.69;47513.31;5037507;28;20166;-86
2022/09/25 05:56:18;;;;;;;15.20;8.20;;;;;;;-141.97;70.06;47553.69;5037904;28;20187;-86
2022/09/25 05:58:44;;;;;;;13.57;9.40;;;;;;;-141.97;69.43;47476.78;5020667;28;20420;-85
2022/09/25 06:01:09;;;;;;;12.63;8.03;;;;;;;-141.97;68.86;47557.53;5042480;28;20162;-85
2022/09/25 06:03:35;;;;;;;13.03;8.53;;;;;;;-141.97;68.70;47507.53;5020175;28;20193;-86
2022/09/25 06:06:01;;;;;;;14.20;8.90;;;;;;;-141.97;67.49;47488.31;5039389;28;20197;-87
2022/09/25 06:08:30;;;;;;;15.23;10.50;;;;;;;-141.97;65.94;47546.00;5037602;28;20595;-85
2022/09/25 06:10:56;;;;;;;14.60;10.30;;;;;;;-141.97;65.13;47507.53;5018732;28;20530;-85
2022/09/25 06:13:23;;;;;;;13.23;9.37;;;;;;;-141.97;64.40;47546.00;5037438;28;20170;-86
2022/09/25 06:15:51;;;;;;;13.47;9.17;;;;;;;-141.97;62.89;47519.06;5036983;28;20158;-86
2022/09/25 06:18:22;;;;;;;11.83;8.50;;;;;;;-141.97;62.14;47549.84;5018952;28;20181;-86
2022/09/25 06:20:48;;;;;;;13.50;8.50;;;;;;;-141.97;61.84;47547.91;5036503;28;20169;-86
2022/09/25 06:23:14;;;;;;;12.70;8.17;;;;;;;-141.97;61.70;47532.53;5036496;28;20224;-86
2022/09/25 06:25:39;;;;;;;12.57;8.30;;;;;;;-141.97;61.01;47561.38;5036563;28;20162;-85
2022/09/25 06:28:06;;;;;;;13.30;9.20;;;;;;;-141.97;60.39;47499.84;5036522;28;20166;-86
2022/09/25 06:30:33;;;;;;;17.10;9.50;;;;;;;-141.97;59.41;47522.91;5037477;28;20776;-86
2022/09/25 06:33:01;;;;;;;14.93;10.67;;;;;;;-141.97;58.26;47499.84;5019584;28;20188;-86
2022/09/25 06:35:28;;;;;;;16.87;10.93;;;;;;;-141.97;58.01;47507.53;5053899;28;20181;-86
2022/09/25 06:37:57;;;;;;;17.90;10.70;;;;;;;-141.97;57.27;47513.31;5037790;28;20264;-88
2022/09/25 06:40:26;;;;;;;18.87;11.33;;;;;;;-141.97;55.95;47496.00;5038115;28;20323;-86
2022/09/25 06:42:59;;;;;;;19.53;11.13;;;;;;;-141.97;55.16;47511.38;5035641;28;20194;-85
2022/09/25 06:45:26;;;;;;;14.47;9.37;;;;;;;-141.97;54.41;47524.84;5036082;28;20162;-86
2022/09/25 06:48:12;;;;;;;19.23;9.00;;;;;;;-141.97;53.77;47505.63;5036063;28;20166;-87
2022/09/25 06:50:41;;;;;;;11.30;8.13;;;;;;;-141.97;52.88;47511.38;5017997;28;20225;-86
2022/09/25 06:53:07;;;;;;;10.70;7.77;;;;;;;-141.97;51.98;47511.38;5047812;28;20188;-86
2022/09/25 06:55:33;;;;;;;9.83;6.80;;;;;;;-141.97;51.51;47526.75;5059018;28;20182;-86
2022/09/25 06:57:59;;;;;;;11.93;7.23;;;;;;;-141.97;50.47;47426.81;5058427;28;20154;-85
2022/09/25 07:00:25;;;;;;;10.63;7.07;;;;;;;-141.97;50.14;47457.56;5043342;28;20316;-87
2022/09/25 07:05:34;;;;;;;13.73;8.50;;;;;;;-141.97;49.19;47515.22;5039340;28;20166;-85
2022/09/25 07:08:00;;;;;;;13.50;8.70;;;;;;;-141.97;48.38;47521.00;5036730;28;20150;-86
2022/09/25 07:10:25;;;;;;;11.97;7.77;;;;;;;-141.97;47.49;47434.50;5037874;28;20584;-86
2022/09/25 07:12:51;;;;;;;9.90;7.30;;;;;;;-141.97;46.85;47499.84;5037214;28;20671;-86
2022/09/25 07:15:17;;;;;;;10.30;6.90;;;;;;;-141.97;46.00;47484.47;5018025;28;20166;-86
2022/09/25 07:17:45;;;;;;;8.33;6.90;;;;;;;-141.97;45.72;47494.09;5036571;28;20214;-86
2022/09/25 07:20:14;;;;;;;10.90;7.63;;;;;;;-141.97;44.66;47496.00;5036396;28;20218;-85
2022/09/25 07:22:42;;;;;;;15.83;9.10;;;;;;;-141.97;43.96;47503.69;5036782;28;20831;-87
2022/09/25 07:25:09;;;;;;;10.47;7.30;;;;;;;-141.97;43.15;47490.25;5035642;28;20224;-87
2022/09/25 07:27:35;;;;;;;12.23;8.13;;;;;;;-141.97;44.94;47480.63;5037628;28;20169;-87
2022/09/25 07:30:02;;;;;;;16.07;9.90;;;;;;;-141.97;44.12;47657.47;5039470;28;20619;-87
2022/09/25 07:32:28;;;;;;;15.90;8.80;;;;;;;-141.97;43.65;47446.03;5043987;28;20190;-86
2022/09/25 07:34:53;;;;;;;11.20;8.77;;;;;;;-141.97;43.81;47484.47;5049043;28;20154;-86
2022/09/25 07:37:19;;;;;;;10.63;7.90;;;;;;;-141.97;42.89;47488.31;5042536;28;20631;-86
2022/09/25 07:39:44;;;;;;;12.87;8.60;;;;;;;-141.97;42.51;47432.59;5036440;28;20623;-85
2022/09/25 07:42:10;;;;;;;10.73;7.80;;;;;;;-141.97;42.10;47449.88;5017450;28;20208;-86
2022/09/25 07:44:36;;;;;;;12.30;8.80;;;;;;;-141.97;41.21;47484.47;5036860;28;20163;-86
2022/09/25 07:47:02;;;;;;;12.77;8.60;;;;;;;-141.97;40.95;47501.78;5017742;28;20568;-86
2022/09/25 07:49:28;;;;;;;15.30;10.77;;;;;;;-141.97;40.62;47480.63;5035978;28;20154;-86
2022/09/25 07:51:54;;;;;;;12.53;9.03;;;;;;;-141.97;40.30;47465.25;5035904;28;20158;-86
2022/09/25 07:54:19;;;;;;;19.20;12.60;;;;;;;-141.97;39.52;47469.09;5017563;28;20174;-86
2022/09/25 07:56:45;;;;;;;14.70;9.50;;;;;;;-141.97;39.72;47597.88;5035471;28;20543;-86
2022/09/25 07:59:10;;;;;;;14.50;9.13;;;;;;;-141.97;39.47;47461.41;5035423;28;20220;-86
2022/09/25 08:01:35;;;;;;;12.37;9.30;;;;;;;-141.97;39.22;47461.41;5035464;28;20158;-86
2022/09/25 08:04:01;;;;;;;16.80;11.30;;;;;;;-141.97;39.04;47453.72;5036649;28;20254;-87
2022/09/25 08:06:26;;;;;;;15.27;11.03;;;;;;;-141.97;38.96;47634.41;5035734;28;20158;-86
2022/09/25 08:08:52;;;;;;;12.33;8.70;;;;;;;-141.97;38.50;47438.34;5034257;28;20237;-85
2022/09/25 08:11:17;;;;;;;12.20;8.57;;;;;;;-141.97;38.02;47438.34;5035511;28;20516;-86
2022/09/25 08:13:44;;;;;;;12.43;9.63;;;;;;;-141.97;38.44;47465.25;5036074;28;20154;-87
2022/09/25 08:16:15;;;;;;;10.73;8.60;;;;;;;-141.97;37.71;47457.56;5018258;28;20289;-86
2022/09/25 08:18:42;;;;;;;13.63;8.83;;;;;;;-141.97;37.74;47430.66;5035430;28;20170;-87
2022/09/25 08:21:09;;;;;;;12.77;9.37;;;;;;;-141.97;37.44;47446.03;5017987;28;20252;-87
2022/09/25 08:23:35;;;;;;;10.70;8.10;;;;;;;-141.97;37.60;47457.56;5017455;28;20283;-85
2022/09/25 08:26:00;;;;;;;21.97;13.23;;;;;;;-141.97;37.55;47465.25;5033965;28;20261;-87
2022/09/25 08:28:27;;;;;;;10.93;8.60;;;;;;;-141.97;37.25;47469.09;5035220;28;20172;-86
2022/09/25 08:30:53;;;;;;;10.90;7.73;;;;;;;-141.97;37.00;47436.44;5040295;28;20158;-86
2022/09/25 08:33:19;;;;;;;13.43;7.90;;;;;;;-141.97;36.85;47446.03;5045690;28;20162;-86
2022/09/25 08:35:57;;;;;;;12.67;9.50;;;;;;;-141.97;36.50;47424.91;5040398;28;20170;-87
2022/09/25 08:38:23;;;;;;;10.77;7.87;;;;;;;-141.97;36.72;47353.78;5037512;28;20209;-86
2022/09/25 08:40:57;;;;;;;10.30;7.53;;;;;;;-141.97;36.70;47492.16;5035742;28;20249;-86
2022/09/25 08:43:25;;;;;;;9.70;7.60;;;;;;;-141.97;36.26;47482.56;5017940;28;20638;-87
2022/09/25 08:51:42;;;;;;;9.80;7.67;;;;;;;-141.97;34.96;47457.56;5036151;28;20169;-85
2022/09/25 08:54:15;;;;;;;10.27;6.90;;;;;;;-141.97;34.97;47394.16;5034390;28;20158;-86
2022/09/25 08:56:41;;;;;;;9.57;7.20;;;;;;;-141.97;34.91;47415.28;5036197;28;20193;-88
2022/09/25 08:59:22;;;;;;;8.77;6.87;;;;;;;-141.97;34.04;47442.19;5034732;28;20162;-86
2022/09/25 09:01:55;;;;;;;10.23;6.10;;;;;;;-141.97;34.19;47430.66;5033768;28;20154;-86
2022/09/25 09:04:31;;;;;;;7.83;6.20;;;;;;;-141.97;33.49;47449.88;5035422;28;20170;-87
2022/09/25 09:07:06;;;;;;;9.43;6.10;;;;;;;-141.97;33.87;47405.69;5034659;28;20172;-87
2022/09/25 09:09:43;;;;;;;6.70;5.87;;;;;;;-141.97;33.59;47430.66;5017808;28;20242;-86
2022/09/25 09:12:13;;;;;;;10.07;6.20;;;;;;;-141.97;33.23;47424.91;5016140;28;20627;-87
2022/09/25 09:14:49;;;;;;;7.93;6.07;;;;;;;-141.97;33.00;47426.81;5035496;28;20166;-86
2022/09/25 09:17:17;;;;;;;7.77;6.07;;;;;;;-141.97;33.27;47401.84;5033730;28;20300;-87
2022/09/25 09:19:46;;;;;;;9.97;5.80;;;;;;;-141.97;33.11;47434.50;5034526;28;20188;-87
2022/09/25 09:22:13;;;;;;;8.13;6.17;;;;;;;-141.97;32.60;47378.78;5037566;28;20190;-87
2022/09/25 09:25:00;;;;;;;7.97;6.30;;;;;;;-141.97;32.66;47426.81;5038900;28;20162;-86
2022/09/25 09:27:25;;;;;;;7.97;5.90;;;;;;;-141.97;32.58;47384.53;5034490;28;20316;-85
2022/09/25 09:30:12;;;;;;;7.90;5.60;;;;;;;-141.97;32.45;47419.13;5033700;28;20197;-87
2022/09/25 09:32:56;;;;;;;8.40;7.07;;;;;;;-141.97;32.33;47413.38;5034851;28;20166;-86
2022/09/25 09:35:33;;;;;;;6.63;5.37;;;;;;;-141.97;32.02;47380.69;5034414;28;20614;-87
2022/09/25 09:38:20;;;;;;;8.03;6.50;;;;;;;-141.97;31.58;47432.59;5037265;28;20521;-85
2022/09/25 09:41:01;;;;;;;6.70;5.40;;;;;;;-141.97;31.91;47413.38;5033431;28;20172;-86
2022/09/25 09:44:14;;;;;;;8.00;5.23;;;;;;;-141.97;32.66;47422.97;5017002;28;20645;-86
2022/09/25 09:47:02;;;;;;;6.20;5.40;;;;;;;-141.97;32.67;47421.06;4972057;28;20235;-87
2022/09/25 09:49:49;;;;;;;6.30;5.63;;;;;;;-141.97;32.86;47415.28;4972735;28;20218;-85
2022/09/25 09:52:33;;;;;;;6.50;5.40;;;;;;;-141.97;32.47;47411.44;4973927;28;20164;-85
2022/09/25 09:55:24;;;;;;;7.33;6.10;;;;;;;-141.97;32.48;47421.06;4972514;28;20183;-85
2022/09/25 09:57:53;;;;;;;6.00;5.40;;;;;;;-141.97;32.24;47401.84;4957962;28;20288;-86
2022/09/25 10:00:21;;;;;;;8.63;7.40;;;;;;;-141.97;31.88;47419.13;4983879;28;20184;-85
2022/09/25 10:03:03;;;;;;;8.43;5.90;;;;;;;-141.97;32.42;47442.19;4993050;28;20196;-81
2022/09/25 10:05:46;;;;;;;9.10;6.00;;;;;;;-141.97;32.33;47392.22;4974742;28;20632;-85
2022/09/25 10:08:11;;;;;;;7.43;5.50;;;;;;;-141.97;31.99;47411.44;4972458;28;20275;-85
2022/09/25 10:10:43;;;;;;;8.03;6.00;;;;;;;-141.97;31.55;47384.53;4973802;28;20200;-85
2022/09/25 10:13:31;;;;;;;8.13;5.63;;;;;;;-141.97;31.78;47442.19;4972845;28;20184;-85
2022/09/25 10:16:02;;;;;;;7.77;6.70;;;;;;;-141.97;31.47;47419.13;4974572;28;20165;-86
2022/09/25 10:18:36;;;;;;;10.80;6.60;;;;;;;-141.97;31.15;47415.28;4972078;28;20187;-85
2022/09/25 10:21:13;;;;;;;6.47;5.70;;;;;;;-141.97;30.40;47388.38;5018287;28;20205;-86
2022/09/25 10:23:45;;;;;;;7.60;5.47;;;;;;;-141.97;30.36;47421.06;5033139;28;20189;-86
2022/09/25 10:26:30;;;;;;;6.60;5.17;;;;;;;-141.97;30.93;47398.00;5035710;28;20162;-86
2022/09/25 10:29:01;;;;;;;6.07;5.20;;;;;;;-141.97;31.04;47307.66;5033771;28;20631;-85
2022/09/25 10:31:38;;;;;;;7.10;5.13;;;;;;;-141.97;30.40;47380.69;5015259;28;20609;-85
2022/09/25 10:34:20;;;;;;;6.67;5.57;;;;;;;-141.97;31.19;47373.00;5037421;28;20184;-85
2022/09/25 10:36:51;;;;;;;7.57;5.23;;;;;;;-141.97;31.15;47396.06;5022878;28;20169;-86
2022/09/25 10:39:34;;;;;;;6.83;5.73;;;;;;;-141.97;30.66;47392.22;5018208;28;20642;-86
2022/09/25 10:42:02;;;;;;;5.93;5.33;;;;;;;-141.97;31.15;47399.91;5037254;28;20220;-85
2022/09/25 10:44:32;;;;;;;6.23;5.27;;;;;;;-141.97;31.01;47384.53;5036083;28;20177;-86
2022/09/25 10:50:21;;;;;;;6.50;5.67;;;;;;;-141.97;31.36;47373.00;5036644;28;20172;-86
2022/09/25 10:53:02;;;;;;;5.97;5.10;;;;;;;-141.97;31.17;47417.22;5050784;28;20257;-85
2022/09/25 10:55:42;;;;;;;5.60;5.10;;;;;;;-141.97;30.94;47419.13;5017361;28;20504;-86
2022/09/25 10:58:21;;;;;;;7.60;5.50;;;;;;;-141.97;30.86;47601.72;5036505;28;20224;-85
2022/09/25 11:00:50;;;;;;;6.70;5.40;;;;;;;-141.97;31.19;47422.97;5037009;28;20162;-86
2022/09/25 11:03:44;;;;;;;8.57;5.30;;;;;;;-141.97;31.46;47438.34;5035593;28;20204;-86
2022/09/25 11:06:23;;;;;;;7.83;5.23;;;;;;;-141.97;31.12;47586.34;5036754;28;20193;-89
2022/09/25 11:09:06;;;;;;;6.43;5.00;;;;;;;-141.97;30.95;47430.66;5035175;28;20216;-86
2022/09/25 11:11:32;;;;;;;8.50;5.10;;;;;;;-141.97;31.23;47259.63;5037299;28;20162;-86
2022/09/25 11:14:02;;;;;;;7.83;5.53;;;;;;;-141.97;31.06;47380.69;5039809;28;20159;-85
2022/09/25 11:16:49;;;;;;;8.13;5.40;;;;;;;-141.97;30.91;47396.06;5020354;28;20209;-86
2022/09/25 11:19:22;;;;;;;8.37;5.13;;;;;;;-141.97;30.89;47396.06;5037238;28;20170;-87
2022/09/25 11:22:28;;;;;;;6.53;5.10;;;;;;;-141.97;30.83;47407.59;5037779;28;20162;-85
2022/09/25 11:25:20;;;;;;;5.80;5.27;;;;;;;-141.97;31.35;47367.25;4976396;28;20202;-86
2022/09/25 11:27:52;;;;;;;6.57;5.00;;;;;;;-141.97;31.10;47401.84;4979287;28;20253;-86
2022/09/25 11:30:19;;;;;;;5.90;5.03;;;;;;;-141.97;30.57;47401.84;4977502;28;20192;-86
2022/09/25 11:32:57;;;;;;;7.43;5.70;;;;;;;-141.97;30.93;47384.53;4960902;28;20180;-86
2022/09/25 11:35:44;;;;;;;10.17;5.30;;;;;;;-141.97;30.72;47411.44;4977861;28;20187;-88
2022/09/25 11:38:16;;;;;;;5.63;4.90;;;;;;;-141.97;30.66;47355.72;4977278;28;20679;-86
2022/09/25 11:41:11;;;;;;;5.57;4.83;;;;;;;-141.97;30.77;47403.75;4977040;28;20180;-85
2022/09/25 11:44:04;;;;;;;5.37;4.87;;;;;;;-141.97;30.38;47382.63;4976438;28;20241;-87
2022/09/25 11:46:40;;;;;;;5.40;4.90;;;;;;;-141.97;31.08;47401.84;4982330;28;20210;-86